sensor_id;sensor_type;location;lat;lon;timestamp;temperature;humidity
70421;SHT31;57848;51.938;15.520;2022-12-18T00:00:39;-2.91;89.96
70421;SHT31;57848;51.938;15.520;2022-12-18T00:03:06;-2.94;90.07
70421;SHT31;57848;51.938;15.520;2022-12-18T00:05:31;-2.94;90.04
70421;SHT31;57848;51.938;15.520;2022-12-18T00:07:56;-2.85;89.99
70421;SHT31;57848;51.938;15.520;2022-12-18T00:10:22;-2.87;89.72
70421;SHT31;57848;51.938;15.520;2022-12-18T00:12:47;-2.94;89.83
70421;SHT31;57848;51.938;15.520;2022-12-18T00:15:12;-2.98;90.16
70421;SHT31;57848;51.938;15.520;2022-12-18T00:17:38;-3.01;90.05
70421;SHT31;57848;51.938;15.520;2022-12-18T00:20:03;-2.98;90.02
70421;SHT31;57848;51.938;15.520;2022-12-18T00:22:29;-2.94;90.03
70421;SHT31;57848;51.938;15.520;2022-12-18T00:24:54;-2.94;90.20
70421;SHT31;57848;51.938;15.520;2022-12-18T00:27:20;-2.92;90.53
70421;SHT31;57848;51.938;15.520;2022-12-18T00:29:45;-2.87;90.10
70421;SHT31;57848;51.938;15.520;2022-12-18T00:32:10;-2.92;90.39
70421;SHT31;57848;51.938;15.520;2022-12-18T00:34:36;-2.85;90.24
70421;SHT31;57848;51.938;15.520;2022-12-18T00:37:01;-2.88;90.32
70421;SHT31;57848;51.938;15.520;2022-12-18T00:39:27;-2.95;90.28
70421;SHT31;57848;51.938;15.520;2022-12-18T00:41:52;-2.88;90.32
70421;SHT31;57848;51.938;15.520;2022-12-18T00:44:36;-2.80;89.97
70421;SHT31;57848;51.938;15.520;2022-12-18T00:47:01;-2.83;89.93
70421;SHT31;57848;51.938;15.520;2022-12-18T00:49:27;-2.78;89.95
70421;SHT31;57848;51.938;15.520;2022-12-18T00:51:53;-2.80;89.48
70421;SHT31;57848;51.938;15.520;2022-12-18T00:54:19;-2.74;89.46
70421;SHT31;57848;51.938;15.520;2022-12-18T00:56:44;-2.70;89.33
70421;SHT31;57848;51.938;15.520;2022-12-18T00:59:10;-2.78;89.54
70421;SHT31;57848;51.938;15.520;2022-12-18T01:01:37;-2.81;89.80
70421;SHT31;57848;51.938;15.520;2022-12-18T01:04:04;-2.87;89.84
70421;SHT31;57848;51.938;15.520;2022-12-18T01:06:29;-2.71;89.76
70421;SHT31;57848;51.938;15.520;2022-12-18T01:08:55;-2.74;89.89
70421;SHT31;57848;51.938;15.520;2022-12-18T01:11:21;-2.74;89.99
70421;SHT31;57848;51.938;15.520;2022-12-18T01:13:47;-2.57;89.55
70421;SHT31;57848;51.938;15.520;2022-12-18T01:16:14;-2.64;89.54
70421;SHT31;57848;51.938;15.520;2022-12-18T01:18:40;-2.58;89.21
70421;SHT31;57848;51.938;15.520;2022-12-18T01:21:11;-2.54;89.20
70421;SHT31;57848;51.938;15.520;2022-12-18T01:23:37;-2.50;88.98
70421;SHT31;57848;51.938;15.520;2022-12-18T01:26:14;-2.53;88.78
70421;SHT31;57848;51.938;15.520;2022-12-18T01:28:40;-2.52;88.55
70421;SHT31;57848;51.938;15.520;2022-12-18T01:31:22;-2.57;88.81
70421;SHT31;57848;51.938;15.520;2022-12-18T01:33:48;-2.68;89.14
70421;SHT31;57848;51.938;15.520;2022-12-18T01:36:20;-2.77;89.20
70421;SHT31;57848;51.938;15.520;2022-12-18T01:38:46;-2.78;88.71
70421;SHT31;57848;51.938;15.520;2022-12-18T01:41:12;-2.87;89.34
70421;SHT31;57848;51.938;15.520;2022-12-18T01:44:46;-2.74;89.19
70421;SHT31;57848;51.938;15.520;2022-12-18T01:46:49;-2.67;88.79
70421;SHT31;57848;51.938;15.520;2022-12-18T01:49:14;-2.74;88.68
70421;SHT31;57848;51.938;15.520;2022-12-18T01:51:40;-2.70;88.55
70421;SHT31;57848;51.938;15.520;2022-12-18T01:54:05;-2.85;89.29
70421;SHT31;57848;51.938;15.520;2022-12-18T01:56:31;-2.92;89.36
70421;SHT31;57848;51.938;15.520;2022-12-18T01:59:04;-2.71;89.04
70421;SHT31;57848;51.938;15.520;2022-12-18T02:01:32;-2.76;89.08
70421;SHT31;57848;51.938;15.520;2022-12-18T02:04:26;-2.76;89.12
70421;SHT31;57848;51.938;15.520;2022-12-18T02:09:49;-2.74;89.41
70421;SHT31;57848;51.938;15.520;2022-12-18T02:12:20;-2.80;89.19
70421;SHT31;57848;51.938;15.520;2022-12-18T02:17:23;-2.88;88.77
70421;SHT31;57848;51.938;15.520;2022-12-18T02:31:26;-2.88;89.68
70421;SHT31;57848;51.938;15.520;2022-12-18T02:33:55;-2.85;89.31
70421;SHT31;57848;51.938;15.520;2022-12-18T02:36:21;-2.84;89.27
70421;SHT31;57848;51.938;15.520;2022-12-18T02:38:48;-2.80;88.99
70421;SHT31;57848;51.938;15.520;2022-12-18T02:41:16;-2.83;88.69
70421;SHT31;57848;51.938;15.520;2022-12-18T02:43:55;-2.80;88.95
70421;SHT31;57848;51.938;15.520;2022-12-18T02:48:57;-2.83;88.75
70421;SHT31;57848;51.938;15.520;2022-12-18T02:51:36;-2.87;89.27
70421;SHT31;57848;51.938;15.520;2022-12-18T02:54:13;-2.92;88.49
70421;SHT31;57848;51.938;15.520;2022-12-18T02:59:58;-2.91;88.82
70421;SHT31;57848;51.938;15.520;2022-12-18T03:05:23;-2.98;89.45
70421;SHT31;57848;51.938;15.520;2022-12-18T03:08:00;-2.83;88.66
70421;SHT31;57848;51.938;15.520;2022-12-18T03:10:38;-2.88;89.03
70421;SHT31;57848;51.938;15.520;2022-12-18T03:13:18;-2.89;89.01
70421;SHT31;57848;51.938;15.520;2022-12-18T03:15:48;-2.97;89.05
70421;SHT31;57848;51.938;15.520;2022-12-18T03:18:25;-2.94;88.21
70421;SHT31;57848;51.938;15.520;2022-12-18T03:20:58;-3.02;88.65
70421;SHT31;57848;51.938;15.520;2022-12-18T03:23:28;-3.02;88.94
70421;SHT31;57848;51.938;15.520;2022-12-18T03:25:58;-3.08;88.86
70421;SHT31;57848;51.938;15.520;2022-12-18T03:28:27;-3.08;88.91
70421;SHT31;57848;51.938;15.520;2022-12-18T03:31:00;-3.01;88.74
70421;SHT31;57848;51.938;15.520;2022-12-18T03:33:32;-3.09;88.42
70421;SHT31;57848;51.938;15.520;2022-12-18T03:36:00;-3.11;88.71
70421;SHT31;57848;51.938;15.520;2022-12-18T03:38:26;-3.15;89.03
70421;SHT31;57848;51.938;15.520;2022-12-18T03:43:54;-3.32;89.34
70421;SHT31;57848;51.938;15.520;2022-12-18T03:46:30;-3.34;89.52
70421;SHT31;57848;51.938;15.520;2022-12-18T03:49:15;-3.42;89.73
70421;SHT31;57848;51.938;15.520;2022-12-18T03:51:53;-3.34;89.83
70421;SHT31;57848;51.938;15.520;2022-12-18T03:54:20;-3.32;89.47
70421;SHT31;57848;51.938;15.520;2022-12-18T03:56:58;-3.31;89.77
70421;SHT31;57848;51.938;15.520;2022-12-18T03:59:26;-3.32;90.04
70421;SHT31;57848;51.938;15.520;2022-12-18T04:01:54;-3.22;89.60
70421;SHT31;57848;51.938;15.520;2022-12-18T04:04:24;-3.25;89.59
70421;SHT31;57848;51.938;15.520;2022-12-18T04:06:50;-3.22;89.88
70421;SHT31;57848;51.938;15.520;2022-12-18T04:09:19;-3.15;89.49
70421;SHT31;57848;51.938;15.520;2022-12-18T04:11:46;-3.11;89.17
70421;SHT31;57848;51.938;15.520;2022-12-18T04:14:14;-3.11;88.95
70421;SHT31;57848;51.938;15.520;2022-12-18T04:16:39;-3.08;88.70
70421;SHT31;57848;51.938;15.520;2022-12-18T04:19:08;-3.12;88.86
70421;SHT31;57848;51.938;15.520;2022-12-18T04:21:38;-3.19;88.90
70421;SHT31;57848;51.938;15.520;2022-12-18T04:24:04;-3.20;89.04
70421;SHT31;57848;51.938;15.520;2022-12-18T04:26:32;-3.29;89.16
70421;SHT31;57848;51.938;15.520;2022-12-18T04:29:26;-3.16;89.33
70421;SHT31;57848;51.938;15.520;2022-12-18T04:31:52;-3.19;89.54
70421;SHT31;57848;51.938;15.520;2022-12-18T04:34:18;-3.15;89.51
70421;SHT31;57848;51.938;15.520;2022-12-18T04:36:48;-3.11;89.61
70421;SHT31;57848;51.938;15.520;2022-12-18T04:39:17;-3.12;89.13
70421;SHT31;57848;51.938;15.520;2022-12-18T04:41:44;-3.12;89.17
70421;SHT31;57848;51.938;15.520;2022-12-18T04:44:11;-3.13;89.61
70421;SHT31;57848;51.938;15.520;2022-12-18T04:46:36;-2.99;89.31
70421;SHT31;57848;51.938;15.520;2022-12-18T04:49:02;-2.97;88.98
70421;SHT31;57848;51.938;15.520;2022-12-18T04:51:27;-3.11;88.55
70421;SHT31;57848;51.938;15.520;2022-12-18T04:53:53;-3.13;88.49
70421;SHT31;57848;51.938;15.520;2022-12-18T04:56:19;-3.13;88.75
70421;SHT31;57848;51.938;15.520;2022-12-18T04:58:44;-3.20;88.90
70421;SHT31;57848;51.938;15.520;2022-12-18T05:01:11;-3.22;89.32
70421;SHT31;57848;51.938;15.520;2022-12-18T05:03:37;-3.13;89.23
70421;SHT31;57848;51.938;15.520;2022-12-18T05:06:04;-3.15;89.14
70421;SHT31;57848;51.938;15.520;2022-12-18T05:08:30;-3.16;88.90
70421;SHT31;57848;51.938;15.520;2022-12-18T05:11:04;-3.05;89.03
70421;SHT31;57848;51.938;15.520;2022-12-18T05:13:31;-3.09;88.93
70421;SHT31;57848;51.938;15.520;2022-12-18T05:15:56;-3.05;89.05
70421;SHT31;57848;51.938;15.520;2022-12-18T05:18:23;-3.16;89.05
70421;SHT31;57848;51.938;15.520;2022-12-18T05:20:50;-3.34;89.19
70421;SHT31;57848;51.938;15.520;2022-12-18T05:23:15;-3.28;89.20
70421;SHT31;57848;51.938;15.520;2022-12-18T05:25:41;-3.29;89.49
70421;SHT31;57848;51.938;15.520;2022-12-18T05:28:06;-3.20;89.35
70421;SHT31;57848;51.938;15.520;2022-12-18T05:30:31;-3.23;88.90
70421;SHT31;57848;51.938;15.520;2022-12-18T05:32:57;-3.22;88.50
70421;SHT31;57848;51.938;15.520;2022-12-18T05:35:22;-3.25;88.61
70421;SHT31;57848;51.938;15.520;2022-12-18T05:37:48;-3.35;89.03
70421;SHT31;57848;51.938;15.520;2022-12-18T05:40:13;-3.36;89.49
70421;SHT31;57848;51.938;15.520;2022-12-18T05:42:38;-3.42;89.57
70421;SHT31;57848;51.938;15.520;2022-12-18T05:45:05;-3.46;89.07
70421;SHT31;57848;51.938;15.520;2022-12-18T05:47:31;-3.57;88.73
70421;SHT31;57848;51.938;15.520;2022-12-18T05:49:56;-3.53;89.13
70421;SHT31;57848;51.938;15.520;2022-12-18T05:52:22;-3.45;88.99
70421;SHT31;57848;51.938;15.520;2022-12-18T05:54:48;-3.59;89.20
70421;SHT31;57848;51.938;15.520;2022-12-18T05:57:13;-3.67;89.40
70421;SHT31;57848;51.938;15.520;2022-12-18T05:59:39;-3.55;89.44
70421;SHT31;57848;51.938;15.520;2022-12-18T06:02:04;-3.66;89.55
70421;SHT31;57848;51.938;15.520;2022-12-18T06:04:33;-3.71;89.60
70421;SHT31;57848;51.938;15.520;2022-12-18T06:06:58;-3.60;89.68
70421;SHT31;57848;51.938;15.520;2022-12-18T06:09:24;-3.68;89.62
70421;SHT31;57848;51.938;15.520;2022-12-18T06:11:51;-3.63;89.91
70421;SHT31;57848;51.938;15.520;2022-12-18T06:14:17;-3.70;90.01
70421;SHT31;57848;51.938;15.520;2022-12-18T06:16:42;-3.67;89.78
70421;SHT31;57848;51.938;15.520;2022-12-18T06:19:12;-3.62;89.41
70421;SHT31;57848;51.938;15.520;2022-12-18T06:21:38;-3.59;89.32
70421;SHT31;57848;51.938;15.520;2022-12-18T06:24:04;-3.67;89.57
70421;SHT31;57848;51.938;15.520;2022-12-18T06:26:29;-3.70;89.52
70421;SHT31;57848;51.938;15.520;2022-12-18T06:28:55;-3.68;89.65
70421;SHT31;57848;51.938;15.520;2022-12-18T06:31:21;-3.74;89.77
70421;SHT31;57848;51.938;15.520;2022-12-18T06:33:46;-3.71;89.66
70421;SHT31;57848;51.938;15.520;2022-12-18T06:36:13;-3.80;89.88
70421;SHT31;57848;51.938;15.520;2022-12-18T06:38:41;-3.76;89.77
70421;SHT31;57848;51.938;15.520;2022-12-18T06:41:18;-3.70;89.82
70421;SHT31;57848;51.938;15.520;2022-12-18T06:43:44;-3.74;89.63
70421;SHT31;57848;51.938;15.520;2022-12-18T06:46:10;-3.78;89.66
70421;SHT31;57848;51.938;15.520;2022-12-18T06:48:35;-3.83;89.93
70421;SHT31;57848;51.938;15.520;2022-12-18T06:51:01;-3.90;89.76
70421;SHT31;57848;51.938;15.520;2022-12-18T06:53:26;-3.91;89.67
70421;SHT31;57848;51.938;15.520;2022-12-18T06:55:52;-3.99;90.08
70421;SHT31;57848;51.938;15.520;2022-12-18T06:58:18;-4.08;90.56
70421;SHT31;57848;51.938;15.520;2022-12-18T07:00:43;-3.95;90.57
70421;SHT31;57848;51.938;15.520;2022-12-18T07:03:08;-3.87;90.33
70421;SHT31;57848;51.938;15.520;2022-12-18T07:05:34;-3.93;90.20
70421;SHT31;57848;51.938;15.520;2022-12-18T07:07:59;-3.91;90.07
70421;SHT31;57848;51.938;15.520;2022-12-18T07:10:25;-4.01;90.26
70421;SHT31;57848;51.938;15.520;2022-12-18T07:12:51;-4.12;90.38
70421;SHT31;57848;51.938;15.520;2022-12-18T07:15:16;-3.97;90.70
70421;SHT31;57848;51.938;15.520;2022-12-18T07:17:42;-4.09;90.42
70421;SHT31;57848;51.938;15.520;2022-12-18T07:20:08;-4.11;90.29
70421;SHT31;57848;51.938;15.520;2022-12-18T07:22:33;-4.05;90.37
70421;SHT31;57848;51.938;15.520;2022-12-18T07:24:59;-4.08;90.35
70421;SHT31;57848;51.938;15.520;2022-12-18T07:27:24;-4.17;90.48
70421;SHT31;57848;51.938;15.520;2022-12-18T07:29:50;-4.18;90.50
70421;SHT31;57848;51.938;15.520;2022-12-18T07:32:15;-4.30;90.40
70421;SHT31;57848;51.938;15.520;2022-12-18T07:34:41;-4.32;90.75
70421;SHT31;57848;51.938;15.520;2022-12-18T07:37:06;-4.21;90.91
70421;SHT31;57848;51.938;15.520;2022-12-18T07:39:32;-4.26;90.61
70421;SHT31;57848;51.938;15.520;2022-12-18T07:41:57;-4.26;90.61
70421;SHT31;57848;51.938;15.520;2022-12-18T07:44:42;-4.24;90.91
70421;SHT31;57848;51.938;15.520;2022-12-18T07:47:07;-4.22;90.74
70421;SHT31;57848;51.938;15.520;2022-12-18T07:49:33;-4.29;90.80
70421;SHT31;57848;51.938;15.520;2022-12-18T07:51:58;-4.17;90.58
70421;SHT31;57848;51.938;15.520;2022-12-18T07:54:24;-4.19;90.95
70421;SHT31;57848;51.938;15.520;2022-12-18T07:56:50;-4.15;90.75
70421;SHT31;57848;51.938;15.520;2022-12-18T07:59:16;-4.07;90.83
70421;SHT31;57848;51.938;15.520;2022-12-18T08:01:42;-4.15;90.31
70421;SHT31;57848;51.938;15.520;2022-12-18T08:04:07;-4.36;90.83
70421;SHT31;57848;51.938;15.520;2022-12-18T08:06:33;-4.32;90.89
70421;SHT31;57848;51.938;15.520;2022-12-18T08:08:58;-4.26;90.93
70421;SHT31;57848;51.938;15.520;2022-12-18T08:11:25;-4.09;90.88
70421;SHT31;57848;51.938;15.520;2022-12-18T08:13:52;-4.07;90.16
70421;SHT31;57848;51.938;15.520;2022-12-18T08:16:18;-4.05;90.08
70421;SHT31;57848;51.938;15.520;2022-12-18T08:18:43;-4.11;90.45
70421;SHT31;57848;51.938;15.520;2022-12-18T08:21:10;-4.07;90.64
70421;SHT31;57848;51.938;15.520;2022-12-18T08:23:37;-4.02;90.40
70421;SHT31;57848;51.938;15.520;2022-12-18T08:26:02;-3.94;90.23
70421;SHT31;57848;51.938;15.520;2022-12-18T08:28:27;-3.95;90.02
70421;SHT31;57848;51.938;15.520;2022-12-18T08:30:53;-3.97;89.84
70421;SHT31;57848;51.938;15.520;2022-12-18T08:33:18;-3.86;90.03
70421;SHT31;57848;51.938;15.520;2022-12-18T08:35:44;-3.86;89.59
70421;SHT31;57848;51.938;15.520;2022-12-18T08:38:09;-3.83;89.43
70421;SHT31;57848;51.938;15.520;2022-12-18T08:40:34;-3.90;89.67
70421;SHT31;57848;51.938;15.520;2022-12-18T08:43:00;-3.91;90.07
70421;SHT31;57848;51.938;15.520;2022-12-18T08:45:44;-3.77;89.72
70421;SHT31;57848;51.938;15.520;2022-12-18T08:48:09;-3.97;89.63
70421;SHT31;57848;51.938;15.520;2022-12-18T08:50:35;-4.05;89.95
70421;SHT31;57848;51.938;15.520;2022-12-18T08:53:00;-4.08;89.92
70421;SHT31;57848;51.938;15.520;2022-12-18T08:55:26;-4.09;89.90
70421;SHT31;57848;51.938;15.520;2022-12-18T08:57:51;-4.15;90.06
70421;SHT31;57848;51.938;15.520;2022-12-18T09:00:17;-4.02;89.87
70421;SHT31;57848;51.938;15.520;2022-12-18T09:02:42;-4.14;90.16
70421;SHT31;57848;51.938;15.520;2022-12-18T09:05:08;-4.17;90.20
70421;SHT31;57848;51.938;15.520;2022-12-18T09:07:34;-4.12;90.09
70421;SHT31;57848;51.938;15.520;2022-12-18T09:09:59;-4.04;90.11
70421;SHT31;57848;51.938;15.520;2022-12-18T09:12:25;-4.05;89.92
70421;SHT31;57848;51.938;15.520;2022-12-18T09:14:50;-4.01;89.60
70421;SHT31;57848;51.938;15.520;2022-12-18T09:17:16;-4.05;89.94
70421;SHT31;57848;51.938;15.520;2022-12-18T09:19:41;-3.97;89.77
70421;SHT31;57848;51.938;15.520;2022-12-18T09:22:07;-3.91;89.92
70421;SHT31;57848;51.938;15.520;2022-12-18T09:24:32;-3.86;89.75
70421;SHT31;57848;51.938;15.520;2022-12-18T09:26:57;-3.84;89.21
70421;SHT31;57848;51.938;15.520;2022-12-18T09:29:24;-3.90;89.26
70421;SHT31;57848;51.938;15.520;2022-12-18T09:31:49;-3.84;89.32
70421;SHT31;57848;51.938;15.520;2022-12-18T09:34:15;-3.88;89.07
70421;SHT31;57848;51.938;15.520;2022-12-18T09:36:40;-3.88;89.17
70421;SHT31;57848;51.938;15.520;2022-12-18T09:39:06;-3.78;88.98
70421;SHT31;57848;51.938;15.520;2022-12-18T09:41:39;-3.70;89.03
70421;SHT31;57848;51.938;15.520;2022-12-18T09:44:49;-3.78;88.97
70421;SHT31;57848;51.938;15.520;2022-12-18T09:47:30;-3.78;88.96
70421;SHT31;57848;51.938;15.520;2022-12-18T09:50:01;-3.74;88.72
70421;SHT31;57848;51.938;15.520;2022-12-18T09:55:01;-3.63;88.41
70421;SHT31;57848;51.938;15.520;2022-12-18T09:57:29;-3.71;88.54
70421;SHT31;57848;51.938;15.520;2022-12-18T10:00:06;-3.62;88.46
70421;SHT31;57848;51.938;15.520;2022-12-18T10:02:36;-3.83;88.49
70421;SHT31;57848;51.938;15.520;2022-12-18T10:05:11;-3.80;88.41
70421;SHT31;57848;51.938;15.520;2022-12-18T10:08:00;-3.80;88.74
70421;SHT31;57848;51.938;15.520;2022-12-18T10:10:32;-3.78;88.64
70421;SHT31;57848;51.938;15.520;2022-12-18T10:13:21;-3.71;88.68
70421;SHT31;57848;51.938;15.520;2022-12-18T10:16:08;-3.71;88.51
70421;SHT31;57848;51.938;15.520;2022-12-18T10:21:16;-3.81;88.96
70421;SHT31;57848;51.938;15.520;2022-12-18T10:24:04;-3.74;88.96
70421;SHT31;57848;51.938;15.520;2022-12-18T10:26:34;-3.68;89.07
70421;SHT31;57848;51.938;15.520;2022-12-18T10:28:59;-3.64;88.69
70421;SHT31;57848;51.938;15.520;2022-12-18T10:31:25;-3.57;88.52
70421;SHT31;57848;51.938;15.520;2022-12-18T10:33:53;-3.59;88.70
70421;SHT31;57848;51.938;15.520;2022-12-18T10:36:20;-3.62;88.69
70421;SHT31;57848;51.938;15.520;2022-12-18T10:38:45;-3.47;88.43
70421;SHT31;57848;51.938;15.520;2022-12-18T10:44:21;-3.43;87.83
70421;SHT31;57848;51.938;15.520;2022-12-18T10:46:48;-3.39;87.82
70421;SHT31;57848;51.938;15.520;2022-12-18T10:49:29;-3.47;88.21
70421;SHT31;57848;51.938;15.520;2022-12-18T10:52:14;-3.47;88.05
70421;SHT31;57848;51.938;15.520;2022-12-18T10:54:47;-3.42;88.07
70421;SHT31;57848;51.938;15.520;2022-12-18T10:57:28;-3.39;88.21
70421;SHT31;57848;51.938;15.520;2022-12-18T10:59:56;-3.31;88.35
70421;SHT31;57848;51.938;15.520;2022-12-18T11:02:36;-3.12;87.52
70421;SHT31;57848;51.938;15.520;2022-12-18T11:05:03;-3.20;87.72
70421;SHT31;57848;51.938;15.520;2022-12-18T11:07:50;-3.19;87.16
70421;SHT31;57848;51.938;15.520;2022-12-18T11:10:17;-3.31;86.77
70421;SHT31;57848;51.938;15.520;2022-12-18T11:12:43;-3.31;86.67
70421;SHT31;57848;51.938;15.520;2022-12-18T11:15:35;-3.18;86.83
70421;SHT31;57848;51.938;15.520;2022-12-18T11:18:00;-3.28;87.02
70421;SHT31;57848;51.938;15.520;2022-12-18T11:20:33;-3.31;87.15
70421;SHT31;57848;51.938;15.520;2022-12-18T11:23:01;-3.22;86.69
70421;SHT31;57848;51.938;15.520;2022-12-18T11:25:31;-3.18;86.59
70421;SHT31;57848;51.938;15.520;2022-12-18T11:30:45;-3.36;86.43
70421;SHT31;57848;51.938;15.520;2022-12-18T11:33:20;-3.31;86.76
70421;SHT31;57848;51.938;15.520;2022-12-18T11:35:52;-3.20;86.67
70421;SHT31;57848;51.938;15.520;2022-12-18T11:43:55;-3.04;86.32
70421;SHT31;57848;51.938;15.520;2022-12-18T11:46:30;-3.11;86.25
70421;SHT31;57848;51.938;15.520;2022-12-18T11:49:10;-3.09;86.64
70421;SHT31;57848;51.938;15.520;2022-12-18T11:51:43;-3.05;86.48
70421;SHT31;57848;51.938;15.520;2022-12-18T11:54:15;-3.02;86.58
70421;SHT31;57848;51.938;15.520;2022-12-18T11:56:57;-3.08;86.10
70421;SHT31;57848;51.938;15.520;2022-12-18T11:59:36;-3.25;86.09
70421;SHT31;57848;51.938;15.520;2022-12-18T12:03:06;-3.12;86.18
70421;SHT31;57848;51.938;15.520;2022-12-18T12:16:07;-3.13;86.25
70421;SHT31;57848;51.938;15.520;2022-12-18T12:18:44;-3.22;86.10
70421;SHT31;57848;51.938;15.520;2022-12-18T12:21:23;-3.08;85.81
70421;SHT31;57848;51.938;15.520;2022-12-18T12:29:44;-2.92;85.83
70421;SHT31;57848;51.938;15.520;2022-12-18T12:32:31;-3.02;85.95
70421;SHT31;57848;51.938;15.520;2022-12-18T12:40:26;-3.01;85.56
70421;SHT31;57848;51.938;15.520;2022-12-18T12:42:58;-3.02;85.29
70421;SHT31;57848;51.938;15.520;2022-12-18T12:45:58;-2.85;85.17
70421;SHT31;57848;51.938;15.520;2022-12-18T12:51:14;-3.04;84.38
70421;SHT31;57848;51.938;15.520;2022-12-18T12:53:41;-3.26;84.52
70421;SHT31;57848;51.938;15.520;2022-12-18T12:56:09;-3.22;84.40
70421;SHT31;57848;51.938;15.520;2022-12-18T13:09:01;-3.25;84.62
70421;SHT31;57848;51.938;15.520;2022-12-18T13:14:39;-3.49;85.18
70421;SHT31;57848;51.938;15.520;2022-12-18T13:20:10;-3.76;85.38
70421;SHT31;57848;51.938;15.520;2022-12-18T13:22:37;-3.86;85.54
70421;SHT31;57848;51.938;15.520;2022-12-18T13:25:44;-3.91;85.64
70421;SHT31;57848;51.938;15.520;2022-12-18T13:28:11;-3.95;85.76
70421;SHT31;57848;51.938;15.520;2022-12-18T13:30:43;-4.05;86.02
70421;SHT31;57848;51.938;15.520;2022-12-18T13:35:41;-4.09;86.13
70421;SHT31;57848;51.938;15.520;2022-12-18T13:38:24;-4.14;86.80
70421;SHT31;57848;51.938;15.520;2022-12-18T13:40:59;-4.17;87.05
70421;SHT31;57848;51.938;15.520;2022-12-18T13:49:04;-4.29;87.00
70421;SHT31;57848;51.938;15.520;2022-12-18T13:51:33;-4.22;87.14
70421;SHT31;57848;51.938;15.520;2022-12-18T13:54:01;-4.33;87.28
70421;SHT31;57848;51.938;15.520;2022-12-18T13:56:32;-4.35;87.37
70421;SHT31;57848;51.938;15.520;2022-12-18T14:01:47;-4.45;87.44
70421;SHT31;57848;51.938;15.520;2022-12-18T14:06:56;-4.52;87.65
70421;SHT31;57848;51.938;15.520;2022-12-18T14:09:29;-4.52;87.79
70421;SHT31;57848;51.938;15.520;2022-12-18T14:11:55;-4.60;87.95
70421;SHT31;57848;51.938;15.520;2022-12-18T14:14:44;-4.66;88.20
70421;SHT31;57848;51.938;15.520;2022-12-18T14:17:11;-4.73;88.33
70421;SHT31;57848;51.938;15.520;2022-12-18T14:19:41;-4.70;88.28
70421;SHT31;57848;51.938;15.520;2022-12-18T14:22:31;-4.76;88.23
70421;SHT31;57848;51.938;15.520;2022-12-18T14:27:51;-4.88;88.68
70421;SHT31;57848;51.938;15.520;2022-12-18T14:30:27;-4.87;88.61
70421;SHT31;57848;51.938;15.520;2022-12-18T14:33:24;-4.93;88.70
70421;SHT31;57848;51.938;15.520;2022-12-18T14:36:14;-4.94;88.90
70421;SHT31;57848;51.938;15.520;2022-12-18T14:39:17;-4.97;89.06
70421;SHT31;57848;51.938;15.520;2022-12-18T14:41:43;-4.96;89.13
70421;SHT31;57848;51.938;15.520;2022-12-18T14:44:12;-5.05;89.35
70421;SHT31;57848;51.938;15.520;2022-12-18T14:46:44;-5.05;89.67
70421;SHT31;57848;51.938;15.520;2022-12-18T14:49:31;-5.14;89.55
70421;SHT31;57848;51.938;15.520;2022-12-18T14:52:27;-5.08;89.40
70421;SHT31;57848;51.938;15.520;2022-12-18T14:54:54;-5.14;89.66
70421;SHT31;57848;51.938;15.520;2022-12-18T14:57:24;-5.11;89.74
70421;SHT31;57848;51.938;15.520;2022-12-18T14:59:52;-5.11;90.06
70421;SHT31;57848;51.938;15.520;2022-12-18T15:02:25;-5.08;89.99
70421;SHT31;57848;51.938;15.520;2022-12-18T15:05:47;-5.12;90.00
70421;SHT31;57848;51.938;15.520;2022-12-18T15:07:50;-5.11;89.98
70421;SHT31;57848;51.938;15.520;2022-12-18T15:10:21;-5.12;90.03
70421;SHT31;57848;51.938;15.520;2022-12-18T15:13:08;-5.14;90.29
70421;SHT31;57848;51.938;15.520;2022-12-18T15:18:00;-5.05;90.40
70421;SHT31;57848;51.938;15.520;2022-12-18T15:20:25;-5.08;90.47
70421;SHT31;57848;51.938;15.520;2022-12-18T15:22:51;-5.15;90.58
70421;SHT31;57848;51.938;15.520;2022-12-18T15:25:28;-5.12;90.57
70421;SHT31;57848;51.938;15.520;2022-12-18T15:27:57;-5.15;90.78
70421;SHT31;57848;51.938;15.520;2022-12-18T15:30:24;-5.07;90.74
70421;SHT31;57848;51.938;15.520;2022-12-18T15:32:51;-5.11;90.78
70421;SHT31;57848;51.938;15.520;2022-12-18T15:35:24;-5.08;90.66
70421;SHT31;57848;51.938;15.520;2022-12-18T15:37:51;-5.15;90.90
70421;SHT31;57848;51.938;15.520;2022-12-18T15:40:20;-5.10;90.82
70421;SHT31;57848;51.938;15.520;2022-12-18T15:42:47;-5.11;90.84
70421;SHT31;57848;51.938;15.520;2022-12-18T15:45:31;-5.08;90.78
70421;SHT31;57848;51.938;15.520;2022-12-18T15:47:57;-5.11;90.89
70421;SHT31;57848;51.938;15.520;2022-12-18T15:50:22;-5.05;90.79
70421;SHT31;57848;51.938;15.520;2022-12-18T15:52:49;-5.14;90.96
70421;SHT31;57848;51.938;15.520;2022-12-18T15:55:18;-5.14;90.92
70421;SHT31;57848;51.938;15.520;2022-12-18T15:58:03;-5.18;90.96
70421;SHT31;57848;51.938;15.520;2022-12-18T16:00:29;-5.12;91.02
70421;SHT31;57848;51.938;15.520;2022-12-18T16:02:54;-5.19;90.95
70421;SHT31;57848;51.938;15.520;2022-12-18T16:05:21;-5.22;91.04
70421;SHT31;57848;51.938;15.520;2022-12-18T16:07:47;-5.22;91.11
70421;SHT31;57848;51.938;15.520;2022-12-18T16:10:13;-5.27;91.25
70421;SHT31;57848;51.938;15.520;2022-12-18T16:12:38;-5.25;91.12
70421;SHT31;57848;51.938;15.520;2022-12-18T16:15:05;-5.27;91.26
70421;SHT31;57848;51.938;15.520;2022-12-18T16:17:31;-5.34;91.20
70421;SHT31;57848;51.938;15.520;2022-12-18T16:19:56;-5.34;91.25
70421;SHT31;57848;51.938;15.520;2022-12-18T16:22:24;-5.36;91.36
70421;SHT31;57848;51.938;15.520;2022-12-18T16:24:51;-5.39;91.22
70421;SHT31;57848;51.938;15.520;2022-12-18T16:27:17;-5.39;91.29
70421;SHT31;57848;51.938;15.520;2022-12-18T16:29:43;-5.39;91.22
70421;SHT31;57848;51.938;15.520;2022-12-18T16:32:12;-5.42;91.45
70421;SHT31;57848;51.938;15.520;2022-12-18T16:34:38;-5.49;91.30
70421;SHT31;57848;51.938;15.520;2022-12-18T16:37:05;-5.45;91.38
70421;SHT31;57848;51.938;15.520;2022-12-18T16:39:31;-5.59;91.47
70421;SHT31;57848;51.938;15.520;2022-12-18T16:41:58;-5.54;91.21
70421;SHT31;57848;51.938;15.520;2022-12-18T16:44:24;-5.63;91.53
70421;SHT31;57848;51.938;15.520;2022-12-18T16:46:49;-5.59;91.54
70421;SHT31;57848;51.938;15.520;2022-12-18T16:49:16;-5.65;91.71
70421;SHT31;57848;51.938;15.520;2022-12-18T16:51:42;-5.70;91.58
70421;SHT31;57848;51.938;15.520;2022-12-18T16:54:08;-5.75;91.79
70421;SHT31;57848;51.938;15.520;2022-12-18T16:56:33;-5.76;91.82
70421;SHT31;57848;51.938;15.520;2022-12-18T16:59:00;-5.76;91.68
70421;SHT31;57848;51.938;15.520;2022-12-18T17:01:27;-5.78;91.69
70421;SHT31;57848;51.938;15.520;2022-12-18T17:03:57;-5.86;91.86
70421;SHT31;57848;51.938;15.520;2022-12-18T17:06:24;-5.86;92.00
70421;SHT31;57848;51.938;15.520;2022-12-18T17:09:07;-5.90;92.14
70421;SHT31;57848;51.938;15.520;2022-12-18T17:11:34;-5.85;91.88
70421;SHT31;57848;51.938;15.520;2022-12-18T17:14:07;-5.91;92.14
70421;SHT31;57848;51.938;15.520;2022-12-18T17:16:33;-5.94;92.03